Time;durP1;ratioP1;P1;durP2;ratioP2;P2;SDS_P1;SDS_P2;PMS_P1;PMS_P2;Temp;Humidity;BMP_temperature;BMP_pressure;BME280_temperature;BME280_humidity;BME280_pressure;Samples;Min_cycle;Max_cycle;Signal;HPM_P1;HPM_P2
2021/03/05 00:00:26;;;;;;;;;;;;;;;22.07;34.39;102540.16;3113560;28;114884;-58
2021/03/05 00:01:57;;;;;;;;;;;;;;;22.05;34.61;102537.63;3114192;27;115736;-59
2021/03/05 00:03:29;;;;;;;;;;;;;;;22.05;34.69;102536.78;3121861;27;115788;-58
2021/03/05 00:05:00;;;;;;;;;;;;;;;22.04;34.88;102541.56;3109767;28;115760;-57
2021/03/05 00:06:31;;;;;;;;;;;;;;;22.04;34.88;102547.19;3118793;27;115752;-58
2021/03/05 00:08:03;;;;;;;;;;;;;;;22.03;34.74;102553.13;3120645;27;115725;-58
2021/03/05 00:09:34;;;;;;;;;;;;;;;22.02;34.86;102554.22;3118011;27;115713;-58
2021/03/05 00:11:06;;;;;;;;;;;;;;;22.02;34.65;102554.22;3118036;27;115868;-58
2021/03/05 00:12:37;;;;;;;;;;;;;;;22.01;34.67;102558.16;3110403;28;116478;-59
2021/03/05 00:14:09;;;;;;;;;;;;;;;21.99;34.84;102551.94;3119775;27;115856;-58
2021/03/05 00:15:44;;;;;;;;;;;;;;;21.99;34.66;102549.13;3120479;27;114113;-57
2021/03/05 00:17:16;;;;;;;;;;;;;;;21.97;34.78;102551.41;3119925;27;115651;-58
2021/03/05 00:21:04;;;;;;;;;;;;;;;21.95;34.67;102562.09;3122457;27;116001;-59
2021/03/05 00:22:37;;;;;;;;;;;;;;;21.93;34.98;102553.09;3123560;27;115693;-58
2021/03/05 00:24:09;;;;;;;;;;;;;;;21.92;35.15;102559.81;3103827;28;113819;-57
2021/03/05 00:25:40;;;;;;;;;;;;;;;21.89;34.84;102555.59;3113068;27;113735;-58
2021/03/05 00:27:12;;;;;;;;;;;;;;;21.89;34.73;102560.38;3120282;27;114263;-58
2021/03/05 00:28:43;;;;;;;;;;;;;;;21.90;34.98;102562.03;3095164;28;113864;-60
2021/03/05 00:30:15;;;;;;;;;;;;;;;21.92;35.50;102568.25;3109718;27;113887;-57
2021/03/05 00:31:47;;;;;;;;;;;;;;;21.89;35.40;102566.00;3123339;27;114005;-58
2021/03/05 00:33:19;;;;;;;;;;;;;;;21.87;35.24;102563.47;3124643;27;114214;-58
2021/03/05 00:34:57;;;;;;;;;;;;;;;21.86;35.20;102572.16;3105650;28;113843;-58
2021/03/05 00:36:31;;;;;;;;;;;;;;;21.85;35.47;102564.88;3104437;28;113896;-58
2021/03/05 00:38:02;;;;;;;;;;;;;;;21.83;35.56;102567.94;3120548;27;114128;-58
2021/03/05 00:39:34;;;;;;;;;;;;;;;21.83;35.24;102562.31;3109988;28;114013;-58
2021/03/05 00:41:07;;;;;;;;;;;;;;;21.81;35.43;102563.72;3120221;27;114143;-57
2021/03/05 00:42:39;;;;;;;;;;;;;;;21.80;35.43;102568.53;3108568;28;113819;-57
2021/03/05 00:44:11;;;;;;;;;;;;;;;21.79;35.52;102574.41;3109883;28;113841;-58
2021/03/05 00:45:42;;;;;;;;;;;;;;;21.77;35.42;102562.56;3124371;27;113859;-58
2021/03/05 00:48:48;;;;;;;;;;;;;;;21.74;35.43;102564.00;3124135;27;115492;-59
2021/03/05 00:50:20;;;;;;;;;;;;;;;21.73;35.63;102567.91;3120241;27;115195;-60
2021/03/05 00:51:51;;;;;;;;;;;;;;;21.72;35.80;102567.06;3122548;27;116049;-58
2021/03/05 00:53:23;;;;;;;;;;;;;;;21.71;35.98;102576.63;3122559;27;115245;-57
2021/03/05 00:54:55;;;;;;;;;;;;;;;21.69;35.96;102573.25;3122252;27;115107;-57
2021/03/05 00:56:27;;;;;;;;;;;;;;;21.68;36.00;102571.56;3124665;27;115006;-57
2021/03/05 00:57:58;;;;;;;;;;;;;;;21.67;35.97;102572.69;3126152;27;113848;-57
2021/03/05 00:59:32;;;;;;;;;;;;;;;21.65;36.05;102576.91;3108881;28;115584;-57
2021/03/05 01:01:03;;;;;;;;;;;;;;;21.64;35.92;102575.22;3121585;27;115016;-57
2021/03/05 01:02:34;;;;;;;;;;;;;;;21.62;36.09;102575.47;3125708;27;116105;-57
2021/03/05 01:04:06;;;;;;;;;;;;;;;21.61;36.11;102575.78;3122393;27;115248;-58
2021/03/05 01:05:38;;;;;;;;;;;;;;;21.60;35.80;102574.06;3098907;28;115222;-56
2021/03/05 01:07:09;;;;;;;;;;;;;;;21.57;36.19;102569.00;3124643;27;114078;-56
2021/03/05 01:08:41;;;;;;;;;;;;;;;21.58;36.03;102579.13;3125613;27;114697;-56
2021/03/05 01:10:13;;;;;;;;;;;;;;;21.54;36.25;102587.25;3121218;27;115688;-57
2021/03/05 01:14:00;;;;;;;;;;;;;;;21.49;36.31;102592.88;3120808;27;116469;-57
2021/03/05 01:15:34;;;;;;;;;;;;;;;21.48;36.00;102591.19;3120913;27;114667;-57
2021/03/05 01:17:06;;;;;;;;;;;;;;;21.45;36.38;102591.72;3110391;28;116405;-57
2021/03/05 01:18:37;;;;;;;;;;;;;;;21.44;36.41;102592.84;3120134;27;115733;-57
2021/03/05 01:20:12;;;;;;;;;;;;;;;21.43;36.20;102591.19;3125959;27;114906;-58
2021/03/05 01:21:43;;;;;;;;;;;;;;;21.39;36.13;102590.03;3109521;28;115917;-57
2021/03/05 01:23:16;;;;;;;;;;;;;;;21.38;36.37;102595.91;3120813;27;115834;-56
2021/03/05 01:24:47;;;;;;;;;;;;;;;21.36;36.29;102589.72;3125291;27;115723;-58
2021/03/05 01:26:19;;;;;;;;;;;;;;;21.33;36.30;102596.75;3125488;27;115763;-56
2021/03/05 01:27:52;;;;;;;;;;;;;;;21.32;36.50;102602.63;3124030;27;115748;-57
2021/03/05 01:29:24;;;;;;;;;;;;;;;21.29;36.29;102612.47;3113539;28;115821;-57
2021/03/05 01:30:55;;;;;;;;;;;;;;;21.27;36.53;102607.13;3117768;27;113983;-57
2021/03/05 01:32:26;;;;;;;;;;;;;;;21.26;36.49;102607.38;3109787;28;113867;-57
2021/03/05 01:33:59;;;;;;;;;;;;;;;21.23;36.49;102607.94;3116654;27;113909;-56
2021/03/05 01:35:39;;;;;;;;;;;;;;;21.22;36.35;102609.88;3124505;27;114046;-59
2021/03/05 01:37:10;;;;;;;;;;;;;;;21.20;36.57;102609.34;3123162;27;113767;-58
2021/03/05 01:38:41;;;;;;;;;;;;;;;21.17;36.44;102603.38;3122712;27;114541;-58
2021/03/05 01:40:15;;;;;;;;;;;;;;;21.19;36.69;102601.16;3121426;27;113930;-57
2021/03/05 01:41:47;;;;;;;;;;;;;;;21.16;36.66;102602.56;3109274;27;114214;-57
2021/03/05 01:43:18;;;;;;;;;;;;;;;21.15;36.76;102605.66;3119432;27;113909;-57
2021/03/05 01:44:50;;;;;;;;;;;;;;;21.14;36.47;102606.75;3125255;27;113714;-57
2021/03/05 01:46:21;;;;;;;;;;;;;;;21.11;36.55;102607.28;3105934;28;113843;-58
2021/03/05 01:47:56;;;;;;;;;;;;;;;21.09;36.88;102601.06;3116509;27;113733;-58
2021/03/05 01:49:27;;;;;;;;;;;;;;;21.10;36.64;102608.38;3118574;27;114145;-59
2021/03/05 01:51:00;;;;;;;;;;;;;;;21.07;36.66;102611.75;3125576;27;114216;-58
2021/03/05 01:52:31;;;;;;;;;;;;;;;21.05;36.63;102609.19;3124274;27;115093;-58
2021/03/05 01:54:04;;;;;;;;;;;;;;;21.03;36.52;102607.78;3122511;27;115083;-58
2021/03/05 01:55:36;;;;;;;;;;;;;;;21.02;36.77;102601.31;3111046;28;115231;-57
2021/03/05 01:57:08;;;;;;;;;;;;;;;21.02;36.82;102606.09;3118989;27;115201;-58
2021/03/05 01:58:39;;;;;;;;;;;;;;;20.99;36.77;102613.09;3125555;27;115009;-57
2021/03/05 02:00:12;;;;;;;;;;;;;;;20.97;36.78;102606.91;3124015;27;115224;-58
2021/03/05 02:01:43;;;;;;;;;;;;;;;20.96;36.81;102613.63;3110983;28;115733;-58
2021/03/05 02:03:14;;;;;;;;;;;;;;;20.95;37.00;102611.09;3118990;27;115295;-58
2021/03/05 02:04:47;;;;;;;;;;;;;;;20.91;36.76;102604.31;3107018;28;115224;-57
2021/03/05 02:06:19;;;;;;;;;;;;;;;20.90;36.73;102611.06;3101651;28;115194;-57
2021/03/05 02:07:50;;;;;;;;;;;;;;;20.90;36.90;102617.53;3117614;27;115819;-57
2021/03/05 02:09:22;;;;;;;;;;;;;;;20.88;36.89;102605.72;3122847;27;115069;-57
2021/03/05 02:10:53;;;;;;;;;;;;;;;20.89;36.97;102603.75;3120086;27;114553;-57
2021/03/05 02:12:24;;;;;;;;;;;;;;;20.85;37.08;102612.72;3112508;28;115577;-56
2021/03/05 02:13:57;;;;;;;;;;;;;;;20.84;36.88;102619.47;3119378;27;117014;-58
2021/03/05 02:15:30;;;;;;;;;;;;;;;20.83;37.09;102619.72;3104176;28;116003;-56
2021/03/05 02:17:09;;;;;;;;;;;;;;;20.84;37.19;102618.63;3115957;27;116354;-57
2021/03/05 02:18:48;;;;;;;;;;;;;;;20.81;37.19;102619.16;3121483;27;115752;-57
2021/03/05 02:20:23;;;;;;;;;;;;;;;20.80;37.21;102623.91;3099457;28;116604;-57
2021/03/05 02:21:58;;;;;;;;;;;;;;;20.77;37.54;102618.84;3116803;27;115688;-57
2021/03/05 02:23:32;;;;;;;;;;;;;;;20.76;37.14;102619.09;3122544;27;115749;-56
2021/03/05 02:25:07;;;;;;;;;;;;;;;20.75;37.28;102620.25;3124148;27;115716;-56
2021/03/05 02:28:28;;;;;;;;;;;;;;;20.74;37.07;102630.63;3120712;27;116377;-57
2021/03/05 02:30:02;;;;;;;;;;;;;;;20.71;37.45;102617.13;3118387;27;116408;-57
2021/03/05 02:31:37;;;;;;;;;;;;;;;20.69;37.03;102624.97;3124174;27;115744;-57
2021/03/05 02:33:13;;;;;;;;;;;;;;;20.70;37.13;102621.06;3123036;27;115730;-57
2021/03/05 02:34:46;;;;;;;;;;;;;;;20.68;37.27;102623.25;3105076;28;115773;-56
2021/03/05 02:36:32;;;;;;;;;;;;;;;20.66;37.24;102619.03;3124024;27;115931;-57
2021/03/05 02:38:07;;;;;;;;;;;;;;;20.64;37.19;102619.31;3117431;27;113710;-56
2021/03/05 02:39:41;;;;;;;;;;;;;;;20.63;37.43;102617.59;3124684;27;113778;-56
2021/03/05 02:41:14;;;;;;;;;;;;;;;20.62;37.45;102624.34;3123968;27;114154;-57
2021/03/05 02:42:50;;;;;;;;;;;;;;;20.60;37.44;102618.16;3124817;27;115844;-56
2021/03/05 02:44:24;;;;;;;;;;;;;;;20.59;37.58;102622.06;3122883;27;113870;-57
2021/03/05 02:45:58;;;;;;;;;;;;;;;20.58;37.55;102616.75;3124992;27;114118;-56
2021/03/05 02:47:31;;;;;;;;;;;;;;;20.59;37.36;102629.63;3114795;27;114042;-57
2021/03/05 02:49:05;;;;;;;;;;;;;;;20.57;37.47;102620.66;3123241;27;113789;-56
2021/03/05 02:50:39;;;;;;;;;;;;;;;20.54;37.53;102621.16;3102976;28;114243;-57
2021/03/05 02:52:13;;;;;;;;;;;;;;;20.54;37.36;102622.03;3116712;27;113901;-57
2021/03/05 02:53:46;;;;;;;;;;;;;;;20.54;37.54;102621.16;3120837;27;113905;-56
2021/03/05 02:55:20;;;;;;;;;;;;;;;20.50;37.65;102618.06;3122466;27;113875;-57
2021/03/05 02:56:52;;;;;;;;;;;;;;;20.48;37.75;102617.50;3120954;27;113928;-58
2021/03/05 02:58:25;;;;;;;;;;;;;;;20.48;37.49;102616.66;3119709;27;113972;-57
2021/03/05 02:59:56;;;;;;;;;;;;;;;20.47;37.30;102612.13;3121811;27;114045;-56
2021/03/05 03:01:28;;;;;;;;;;;;;;;20.46;37.51;102611.28;3110583;28;115242;-57
2021/03/05 03:04:37;;;;;;;;;;;;;;;20.42;37.58;102618.56;3122879;27;114677;-56
2021/03/05 03:06:09;;;;;;;;;;;;;;;20.41;37.27;102622.47;3123579;27;115323;-56
2021/03/05 03:07:41;;;;;;;;;;;;;;;20.39;37.71;102611.53;3110124;28;115481;-57
2021/03/05 03:09:14;;;;;;;;;;;;;;;20.38;37.88;102623.88;3105987;28;115464;-56
2021/03/05 03:10:46;;;;;;;;;;;;;;;20.38;37.73;102623.00;3116984;27;115258;-57
2021/03/05 03:12:19;;;;;;;;;;;;;;;20.37;37.63;102624.13;3120533;27;115681;-57
2021/03/05 03:13:51;;;;;;;;;;;;;;;20.34;37.89;102621.84;3124237;27;115403;-58
2021/03/05 03:15:23;;;;;;;;;;;;;;;20.34;37.68;102621.84;3123733;27;115545;-57
2021/03/05 03:16:56;;;;;;;;;;;;;;;20.32;37.74;102619.31;3110488;28;115132;-57
2021/03/05 03:18:27;;;;;;;;;;;;;;;20.29;37.85;102627.38;3103948;28;115282;-56
2021/03/05 03:20:00;;;;;;;;;;;;;;;20.29;37.82;102631.03;3110860;28;115272;-57
2021/03/05 03:21:32;;;;;;;;;;;;;;;20.29;37.97;102628.25;3117783;27;115737;-57
2021/03/05 03:23:05;;;;;;;;;;;;;;;20.28;37.75;102629.34;3111815;27;115516;-57
2021/03/05 03:24:37;;;;;;;;;;;;;;;20.26;37.84;102630.72;3124427;27;115912;-56
2021/03/05 03:26:08;;;;;;;;;;;;;;;20.25;37.73;102620.63;3111792;27;115811;-58
2021/03/05 03:27:40;;;;;;;;;;;;;;;20.24;37.64;102628.19;3106736;28;116146;-57
2021/03/05 03:29:11;;;;;;;;;;;;;;;20.24;37.98;102627.34;3105837;28;115860;-57
2021/03/05 03:30:43;;;;;;;;;;;;;;;20.21;37.74;102625.91;3103993;28;115868;-57
2021/03/05 03:32:14;;;;;;;;;;;;;;;20.20;37.57;102628.97;3115015;27;115499;-57
2021/03/05 03:33:47;;;;;;;;;;;;;;;20.20;37.79;102628.97;3113225;27;117407;-56
2021/03/05 03:35:18;;;;;;;;;;;;;;;20.18;37.82;102634.00;3103534;28;116199;-57
2021/03/05 03:37:04;;;;;;;;;;;;;;;20.16;38.00;102636.25;3109640;27;116762;-57
2021/03/05 03:38:39;;;;;;;;;;;;;;;20.17;38.05;102632.31;3098583;28;115659;-57
2021/03/05 03:40:12;;;;;;;;;;;;;;;20.15;38.06;102628.91;3102199;28;115771;-56
2021/03/05 03:41:44;;;;;;;;;;;;;;;20.13;37.78;102633.94;3114819;27;115676;-57
2021/03/05 03:43:15;;;;;;;;;;;;;;;20.12;37.72;102629.47;3107801;28;114049;-57
2021/03/05 03:44:47;;;;;;;;;;;;;;;20.12;37.85;102626.66;3105566;28;113749;-57
2021/03/05 03:46:18;;;;;;;;;;;;;;;20.11;37.99;102630.56;3101987;28;113914;-57
2021/03/05 03:47:51;;;;;;;;;;;;;;;20.08;37.79;102631.94;3111425;27;113989;-56
2021/03/05 03:49:26;;;;;;;;;;;;;;;20.07;37.96;102635.03;3110399;27;113751;-56
2021/03/05 03:51:00;;;;;;;;;;;;;;;20.07;37.94;102640.63;3107213;28;113863;-56
2021/03/05 03:52:35;;;;;;;;;;;;;;;20.06;37.80;102642.59;3102990;28;113804;-57
2021/03/05 03:54:07;;;;;;;;;;;;;;;20.03;38.03;102643.13;3105747;28;113722;-57
2021/03/05 03:55:38;;;;;;;;;;;;;;;20.04;37.96;102638.34;3098061;28;113876;-58
2021/03/05 03:57:12;;;;;;;;;;;;;;;20.03;37.93;102647.88;3093694;28;113707;-56
2021/03/05 03:58:48;;;;;;;;;;;;;;;20.01;37.89;102645.34;3098930;28;113782;-56
2021/03/05 04:00:20;;;;;;;;;;;;;;;19.99;38.15;102651.19;3099689;28;113765;-56
2021/03/05 04:01:55;;;;;;;;;;;;;;;20.00;38.31;102646.44;3092892;28;114059;-57
2021/03/05 04:03:29;;;;;;;;;;;;;;;19.99;37.94;102653.16;3107030;28;114220;-58
2021/03/05 04:05:02;;;;;;;;;;;;;;;19.97;38.17;102653.44;3110630;28;114025;-56
2021/03/05 04:06:35;;;;;;;;;;;;;;;19.95;38.18;102650.03;3101145;28;115212;-56
2021/03/05 04:08:07;;;;;;;;;;;;;;;19.92;38.26;102650.56;3111031;27;115133;-57
2021/03/05 04:09:38;;;;;;;;;;;;;;;19.93;37.95;102655.06;3085486;28;114055;-57
2021/03/05 04:11:10;;;;;;;;;;;;;;;19.90;38.22;102661.19;3096403;28;115876;-56
2021/03/05 04:12:44;;;;;;;;;;;;;;;19.89;38.02;102662.31;3105347;28;115048;-56
2021/03/05 04:14:19;;;;;;;;;;;;;;;19.88;38.05;102663.44;3100451;28;114050;-57
2021/03/05 04:15:50;;;;;;;;;;;;;;;19.88;38.12;102657.81;3105485;28;113816;-56
2021/03/05 04:17:23;;;;;;;;;;;;;;;19.85;38.14;102661.13;3112271;28;114977;-56
2021/03/05 04:18:56;;;;;;;;;;;;;;;19.85;38.35;102657.50;3110711;27;115862;-55
2021/03/05 04:20:30;;;;;;;;;;;;;;;19.84;38.22;102667.03;3111339;28;115020;-57
2021/03/05 04:22:01;;;;;;;;;;;;;;;19.83;38.17;102663.38;3102143;28;114156;-56
2021/03/05 04:23:34;;;;;;;;;;;;;;;19.82;38.45;102672.88;3108336;28;115187;-57
2021/03/05 04:25:07;;;;;;;;;;;;;;;19.82;38.25;102669.22;3109192;28;117951;-57
2021/03/05 04:26:39;;;;;;;;;;;;;;;19.81;38.21;102667.53;3114768;28;114091;-58
2021/03/05 04:28:10;;;;;;;;;;;;;;;19.80;38.34;102665.84;3109436;27;116719;-58
2021/03/05 04:29:43;;;;;;;;;;;;;;;19.79;38.31;102673.41;3103337;28;114924;-57
2021/03/05 04:31:14;;;;;;;;;;;;;;;19.81;38.40;102675.94;3106559;28;115894;-58
2021/03/05 04:32:46;;;;;;;;;;;;;;;19.78;38.46;102674.50;3106220;28;116414;-56
2021/03/05 04:34:18;;;;;;;;;;;;;;;19.78;38.27;102673.66;3098668;28;116060;-57
2021/03/05 04:35:49;;;;;;;;;;;;;;;19.76;38.40;102670.28;3108858;28;115741;-57
2021/03/05 04:37:22;;;;;;;;;;;;;;;19.75;38.68;102674.19;3108165;28;115830;-57
2021/03/05 04:38:54;;;;;;;;;;;;;;;19.74;38.42;102670.53;3110549;28;115807;-58
2021/03/05 04:40:25;;;;;;;;;;;;;;;19.73;38.57;102677.25;3104313;28;115883;-56
2021/03/05 04:41:58;;;;;;;;;;;;;;;19.72;38.62;102675.53;3107463;28;116648;-57
2021/03/05 04:43:33;;;;;;;;;;;;;;;19.73;38.67;102682.00;3110871;27;114981;-57
2021/03/05 04:45:08;;;;;;;;;;;;;;;19.70;38.48;102683.41;3110571;27;114967;-58
2021/03/05 04:46:40;;;;;;;;;;;;;;;19.69;38.47;102690.09;3107354;28;115684;-58
2021/03/05 04:48:13;;;;;;;;;;;;;;;19.69;38.51;102681.69;3108668;28;115794;-58
2021/03/05 04:49:45;;;;;;;;;;;;;;;19.68;38.63;102681.94;3110704;28;113947;-58
2021/03/05 04:51:16;;;;;;;;;;;;;;;19.66;38.78;102682.22;3106162;28;114034;-58
2021/03/05 04:52:48;;;;;;;;;;;;;;;19.65;38.42;102688.94;3096940;28;114187;-56
2021/03/05 04:54:19;;;;;;;;;;;;;;;19.64;38.81;102690.03;3101668;28;114228;-58
2021/03/05 04:55:51;;;;;;;;;;;;;;;19.65;38.63;102690.88;3096552;28;113799;-57
2021/03/05 04:57:22;;;;;;;;;;;;;;;19.62;38.57;102692.25;3106523;28;113833;-58
2021/03/05 04:58:55;;;;;;;;;;;;;;;19.62;38.95;102695.06;3110738;28;113722;-58
2021/03/05 05:00:27;;;;;;;;;;;;;;;19.61;38.80;102698.97;3111215;27;113824;-57
2021/03/05 05:01:59;;;;;;;;;;;;;;;19.60;39.03;102700.06;3110135;28;113886;-58
2021/03/05 05:03:32;;;;;;;;;;;;;;;19.59;38.76;102697.53;3110009;28;113961;-58
2021/03/05 05:05:03;;;;;;;;;;;;;;;19.58;39.00;102701.47;3103280;28;113696;-58
2021/03/05 05:06:35;;;;;;;;;;;;;;;19.57;38.70;102699.75;3099538;28;113789;-57
2021/03/05 05:08:21;;;;;;;;;;;;;;;19.57;38.85;102699.75;3110558;28;113773;-57
2021/03/05 05:09:52;;;;;;;;;;;;;;;19.57;39.05;102706.22;3112907;28;113727;-56
2021/03/05 05:11:24;;;;;;;;;;;;;;;19.61;38.91;102706.53;3098473;28;115227;-58
2021/03/05 05:12:56;;;;;;;;;;;;;;;19.68;38.96;102709.97;3105771;28;115131;-57
2021/03/05 05:14:27;;;;;;;;;;;;;;;19.72;38.97;102713.97;3109716;28;115504;-58
2021/03/05 05:15:59;;;;;;;;;;;;;;;19.76;39.09;102715.16;3097470;28;115284;-57
2021/03/05 05:17:30;;;;;;;;;;;;;;;19.80;39.21;102711.59;3099975;28;115831;-57
2021/03/05 05:19:04;;;;;;;;;;;;;;;19.81;38.92;102718.00;3108306;28;115484;-58
2021/03/05 05:20:35;;;;;;;;;;;;;;;19.86;39.06;102718.06;3111461;28;115315;-58
2021/03/05 05:22:07;;;;;;;;;;;;;;;19.87;39.04;102719.78;3109511;28;115343;-58
2021/03/05 05:23:38;;;;;;;;;;;;;;;19.86;39.38;102720.88;3104786;28;115171;-58
2021/03/05 05:25:11;;;;;;;;;;;;;;;19.84;39.03;102715.56;3103622;28;115228;-58
2021/03/05 05:26:42;;;;;;;;;;;;;;;19.86;38.88;102720.88;3109647;28;115266;-58
2021/03/05 05:28:14;;;;;;;;;;;;;;;19.85;38.79;102714.41;3102641;28;115900;-57
2021/03/05 05:29:46;;;;;;;;;;;;;;;19.87;38.84;102719.78;3112321;28;115765;-58
2021/03/05 05:31:19;;;;;;;;;;;;;;;19.89;38.92;102723.19;3101547;28;115057;-57
2021/03/05 05:32:50;;;;;;;;;;;;;;;19.91;39.06;102724.59;3106381;28;115778;-57
2021/03/05 05:34:22;;;;;;;;;;;;;;;19.92;38.99;102726.31;3104808;28;116218;-57
2021/03/05 05:35:55;;;;;;;;;;;;;;;19.97;39.14;102725.53;3104821;28;116765;-57
2021/03/05 05:37:26;;;;;;;;;;;;;;;19.99;39.34;102726.94;3085007;28;115843;-57
2021/03/05 05:38:57;;;;;;;;;;;;;;;20.03;39.19;102729.25;3103678;28;115781;-57
2021/03/05 05:40:29;;;;;;;;;;;;;;;20.07;39.23;102727.63;3102730;28;114411;-57
2021/03/05 05:42:01;;;;;;;;;;;;;;;20.10;39.38;102727.94;3095415;28;115852;-57
2021/03/05 05:43:32;;;;;;;;;;;;;;;20.13;39.35;102726.53;3099734;28;115643;-57
2021/03/05 05:45:04;;;;;;;;;;;;;;;20.18;39.20;102735.88;3106919;28;114639;-57
2021/03/05 05:46:38;;;;;;;;;;;;;;;20.22;39.13;102733.38;3108007;28;115871;-57
2021/03/05 05:48:11;;;;;;;;;;;;;;;20.26;39.18;102734.59;3105485;28;116397;-57
2021/03/05 05:49:44;;;;;;;;;;;;;;;20.30;38.74;102724.56;3105210;28;116392;-57
2021/03/05 05:51:17;;;;;;;;;;;;;;;20.35;38.89;102733.03;3106496;27;115814;-57
2021/03/05 05:52:51;;;;;;;;;;;;;;;20.38;38.95;102736.16;3108835;28;115725;-57
2021/03/05 05:54:23;;;;;;;;;;;;;;;20.42;38.61;102733.66;3102850;28;115756;-57
2021/03/05 05:55:55;;;;;;;;;;;;;;;20.46;38.94;102734.84;3107625;28;113880;-57
2021/03/05 05:57:27;;;;;;;;;;;;;;;20.51;38.73;102734.03;3112484;27;113961;-58
2021/03/05 05:58:59;;;;;;;;;;;;;;;20.54;38.98;102739.97;3111768;28;113986;-58
2021/03/05 06:00:32;;;;;;;;;;;;;;;20.58;38.76;102732.69;3110416;28;113787;-57
2021/03/05 06:02:04;;;;;;;;;;;;;;;20.62;38.56;102738.66;3111550;27;113996;-56
2021/03/05 06:03:37;;;;;;;;;;;;;;;20.67;38.51;102733.09;3111858;27;114011;-57
2021/03/05 06:05:08;;;;;;;;;;;;;;;20.70;38.44;102738.16;3107959;27;114087;-57
2021/03/05 06:06:40;;;;;;;;;;;;;;;20.74;38.16;102733.72;3104983;28;113806;-57
2021/03/05 06:08:12;;;;;;;;;;;;;;;20.77;38.18;102741.59;3111810;27;113785;-57
2021/03/05 06:09:43;;;;;;;;;;;;;;;20.80;38.22;102738.28;3107235;28;113903;-57
2021/03/05 06:11:14;;;;;;;;;;;;;;;20.84;38.11;102745.91;3101495;28;113838;-58
2021/03/05 06:12:48;;;;;;;;;;;;;;;20.87;37.83;102736.06;3101196;28;113811;-58
2021/03/05 06:14:20;;;;;;;;;;;;;;;20.91;37.84;102742.00;3101559;28;114272;-57
2021/03/05 06:15:55;;;;;;;;;;;;;;;20.95;38.45;102746.81;3107579;28;114380;-59
2021/03/05 06:17:35;;;;;;;;;;;;;;;21.00;38.08;102743.22;3101152;28;115133;-58
2021/03/05 06:19:15;;;;;;;;;;;;;;;21.03;37.70;102737.88;3110799;28;115072;-57
2021/03/05 06:20:48;;;;;;;;;;;;;;;21.07;37.98;102736.25;3111024;28;115570;-57
2021/03/05 06:22:21;;;;;;;;;;;;;;;21.11;37.62;102742.19;3112392;27;115492;-57
2021/03/05 06:23:55;;;;;;;;;;;;;;;21.16;37.73;102745.06;3107806;28;115389;-58
2021/03/05 06:25:30;;;;;;;;;;;;;;;21.17;37.78;102749.56;3098393;28;115228;-57
2021/03/05 06:27:01;;;;;;;;;;;;;;;21.21;37.57;102742.31;3112100;28;114131;-58
2021/03/05 06:28:33;;;;;;;;;;;;;;;21.24;37.55;102747.38;3111455;28;115591;-58
2021/03/05 06:30:06;;;;;;;;;;;;;;;21.27;37.45;102741.22;3112109;28;115174;-58
2021/03/05 06:31:38;;;;;;;;;;;;;;;21.31;37.57;102750.78;3112425;27;115393;-57
2021/03/05 06:33:12;;;;;;;;;;;;;;;21.34;37.46;102744.66;3104069;28;114709;-58
2021/03/05 06:34:45;;;;;;;;;;;;;;;21.37;37.45;102749.72;3107768;28;115728;-57
2021/03/05 06:36:17;;;;;;;;;;;;;;;21.41;37.51;102753.69;3111494;28;116456;-57
2021/03/05 06:37:49;;;;;;;;;;;;;;;21.44;37.18;102761.56;3118312;27;115818;-57
2021/03/05 06:39:29;;;;;;;;;;;;;;;21.46;37.40;102767.78;3124216;27;115784;-58
2021/03/05 06:41:06;;;;;;;;;;;;;;;21.49;37.21;102767.25;3123350;27;116015;-57
2021/03/05 06:42:40;;;;;;;;;;;;;;;21.52;36.88;102763.91;3124348;27;116480;-57
2021/03/05 06:44:12;;;;;;;;;;;;;;;21.55;37.24;102760.53;3124601;27;115890;-57
2021/03/05 06:45:43;;;;;;;;;;;;;;;21.58;37.21;102768.44;3124404;27;115822;-57
2021/03/05 06:47:16;;;;;;;;;;;;;;;21.61;36.95;102761.44;3118532;27;116307;-57
2021/03/05 06:48:51;;;;;;;;;;;;;;;21.63;37.02;102768.47;3109933;28;116369;-58
2021/03/05 06:50:23;;;;;;;;;;;;;;;21.66;36.95;102773.56;3113529;27;115840;-58
2021/03/05 06:51:55;;;;;;;;;;;;;;;21.69;36.93;102770.19;3120008;27;115804;-58
2021/03/05 06:53:27;;;;;;;;;;;;;;;21.73;37.78;102773.31;3107795;28;114736;-57
2021/03/05 06:55:02;;;;;;;;;;;;;;;21.75;37.33;102771.09;3120535;27;115715;-57
2021/03/05 06:56:34;;;;;;;;;;;;;;;21.77;36.88;102766.00;3118820;27;115899;-58
2021/03/05 06:58:07;;;;;;;;;;;;;;;21.80;37.17;102773.06;3105186;28;115833;-58
2021/03/05 06:59:41;;;;;;;;;;;;;;;21.81;37.07;102777.56;3110096;28;115983;-58
2021/03/05 07:01:13;;;;;;;;;;;;;;;21.84;36.84;102783.53;3105942;28;113779;-57
2021/03/05 07:02:45;;;;;;;;;;;;;;;21.87;36.61;102787.75;3119817;27;113727;-59
2021/03/05 07:04:18;;;;;;;;;;;;;;;21.89;36.74;102779.88;3111267;28;113785;-57
2021/03/05 07:05:50;;;;;;;;;;;;;;;21.91;36.65;102780.44;3110132;28;113833;-58
2021/03/05 07:07:22;;;;;;;;;;;;;;;21.93;36.60;102784.72;3122998;27;113827;-59
2021/03/05 07:08:55;;;;;;;;;;;;;;;21.96;36.66;102791.75;3123853;27;113823;-58
2021/03/05 07:10:31;;;;;;;;;;;;;;;21.98;36.59;102796.00;3123144;27;113678;-57
2021/03/05 07:12:05;;;;;;;;;;;;;;;22.00;36.50;102788.13;3110712;28;113980;-58
2021/03/05 07:13:40;;;;;;;;;;;;;;;22.02;36.91;102787.88;3116113;27;114002;-58
2021/03/05 07:15:11;;;;;;;;;;;;;;;22.04;36.40;102789.25;3118711;27;113773;-58
2021/03/05 07:16:43;;;;;;;;;;;;;;;22.07;36.45;102790.72;3119900;27;113765;-57
2021/03/05 07:18:15;;;;;;;;;;;;;;;22.08;36.46;102801.66;3124097;27;113740;-58
2021/03/05 07:19:47;;;;;;;;;;;;;;;22.11;36.57;102792.69;3122122;27;113867;-58
2021/03/05 07:21:20;;;;;;;;;;;;;;;22.13;36.36;102807.34;3124767;27;113877;-59
2021/03/05 07:22:53;;;;;;;;;;;;;;;22.14;36.19;102800.59;3113360;28;114151;-58
2021/03/05 07:24:26;;;;;;;;;;;;;;;22.16;36.18;102806.81;3120623;27;115114;-58
2021/03/05 07:25:58;;;;;;;;;;;;;;;22.19;36.24;102811.03;3109929;28;115155;-58
2021/03/05 07:27:36;;;;;;;;;;;;;;;22.23;36.41;102819.75;3120055;27;114929;-57
2021/03/05 07:29:18;;;;;;;;;;;;;;;22.25;36.22;102821.19;3121500;27;114788;-57
2021/03/05 07:30:50;;;;;;;;;;;;;;;22.26;36.29;102820.06;3110451;28;115169;-56
2021/03/05 07:32:24;;;;;;;;;;;;;;;22.27;36.42;102821.75;3117482;27;115717;-58
2021/03/05 07:33:59;;;;;;;;;;;;;;;22.29;36.26;102830.78;3113896;27;115505;-58
2021/03/05 07:35:35;;;;;;;;;;;;;;;22.31;36.08;102834.16;3116096;27;115350;-57
2021/03/05 07:37:11;;;;;;;;;;;;;;;22.34;36.09;102836.44;3098665;28;115266;-58
2021/03/05 07:38:46;;;;;;;;;;;;;;;22.36;35.95;102838.97;3108814;28;115226;-57
2021/03/05 07:40:17;;;;;;;;;;;;;;;22.37;36.16;102833.06;3119772;27;114857;-57
2021/03/05 07:41:50;;;;;;;;;;;;;;;22.38;36.16;102840.41;3122166;27;114871;-57
2021/03/05 07:43:23;;;;;;;;;;;;;;;22.40;36.07;102843.78;3104378;28;116072;-58
2021/03/05 07:44:56;;;;;;;;;;;;;;;22.43;36.18;102845.22;3111732;27;115240;-57
2021/03/05 07:46:27;;;;;;;;;;;;;;;22.45;35.95;102845.78;3123405;27;115775;-58
2021/03/05 07:48:00;;;;;;;;;;;;;;;22.47;36.46;102850.03;3110446;28;115837;-58
2021/03/05 07:49:33;;;;;;;;;;;;;;;22.48;36.21;102856.50;3115836;27;116518;-57
2021/03/05 07:51:05;;;;;;;;;;;;;;;22.50;36.17;102857.91;3112936;27;115706;-58
2021/03/05 07:52:37;;;;;;;;;;;;;;;22.52;36.04;102861.31;3106144;28;115743;-59
2021/03/05 07:54:09;;;;;;;;;;;;;;;22.53;36.09;102860.16;3115276;27;115912;-57
2021/03/05 07:55:41;;;;;;;;;;;;;;;22.57;35.97;102864.16;3110982;28;115656;-58
2021/03/05 07:57:14;;;;;;;;;;;;;;;22.58;35.89;102863.00;3105199;28;115806;-57
2021/03/05 07:58:46;;;;;;;;;;;;;;;22.61;35.81;102858.81;3118299;27;116365;-59
2021/03/05 08:00:38;;;;;;;;;;;;;;;22.62;35.63;102860.50;3097727;28;114388;-57